sensor_id;sensor_type;location;lat;lon;timestamp;pressure;altitude;pressure_sealevel;temperature;humidity
18858;BME280;9558;50.178;8.370;2023-02-10T00:01:45;100012.16;;;-3.92;93.30
18858;BME280;9558;50.178;8.370;2023-02-10T00:04:13;100026.50;;;-3.92;93.33
18858;BME280;9558;50.178;8.370;2023-02-10T00:06:40;100032.41;;;-3.92;93.54
18858;BME280;9558;50.178;8.370;2023-02-10T00:09:07;100019.78;;;-3.93;93.64
18858;BME280;9558;50.178;8.370;2023-02-10T00:11:36;100022.41;;;-3.96;94.42
18858;BME280;9558;50.178;8.370;2023-02-10T00:14:20;100036.78;;;-3.98;93.76
18858;BME280;9558;50.178;8.370;2023-02-10T00:16:49;100035.97;;;-4.01;93.49
18858;BME280;9558;50.178;8.370;2023-02-10T00:19:18;100035.13;;;-4.00;93.40
18858;BME280;9558;50.178;8.370;2023-02-10T00:21:45;100038.59;;;-4.04;93.78
18858;BME280;9558;50.178;8.370;2023-02-10T00:24:12;100039.44;;;-4.05;96.36
18858;BME280;9558;50.178;8.370;2023-02-10T00:26:38;100035.28;;;-4.06;95.46
18858;BME280;9558;50.178;8.370;2023-02-10T00:29:05;100040.34;;;-4.06;93.88
18858;BME280;9558;50.178;8.370;2023-02-10T00:31:31;100047.94;;;-4.07;93.66
18858;BME280;9558;50.178;8.370;2023-02-10T00:33:58;100048.78;;;-4.07;93.65
18858;BME280;9558;50.178;8.370;2023-02-10T00:36:26;100048.81;;;-4.08;93.69
18858;BME280;9558;50.178;8.370;2023-02-10T00:38:53;100047.94;;;-4.07;93.51
18858;BME280;9558;50.178;8.370;2023-02-10T00:41:21;100052.16;;;-4.08;93.83
18858;BME280;9558;50.178;8.370;2023-02-10T00:43:49;100062.31;;;-4.09;94.15
18858;BME280;9558;50.178;8.370;2023-02-10T00:46:17;100068.22;;;-4.10;93.87
18858;BME280;9558;50.178;8.370;2023-02-10T00:48:44;100066.63;;;-4.14;94.53
18858;BME280;9558;50.178;8.370;2023-02-10T00:51:12;100063.25;;;-4.13;93.83
18858;BME280;9558;50.178;8.370;2023-02-10T00:53:41;100071.69;;;-4.14;93.79
18858;BME280;9558;50.178;8.370;2023-02-10T00:56:08;100069.94;;;-4.11;93.72
18858;BME280;9558;50.178;8.370;2023-02-10T00:58:35;100077.69;;;-4.17;93.79
18858;BME280;9558;50.178;8.370;2023-02-10T01:01:02;100076.00;;;-4.18;93.78
18858;BME280;9558;50.178;8.370;2023-02-10T01:03:28;100077.72;;;-4.20;95.27
18858;BME280;9558;50.178;8.370;2023-02-10T01:05:55;100077.81;;;-4.25;95.39
18858;BME280;9558;50.178;8.370;2023-02-10T01:08:21;100085.41;;;-4.25;94.18
18858;BME280;9558;50.178;8.370;2023-02-10T01:10:49;100078.75;;;-4.29;95.43
18858;BME280;9558;50.178;8.370;2023-02-10T01:13:16;100080.41;;;-4.26;94.41
18858;BME280;9558;50.178;8.370;2023-02-10T01:15:44;100075.34;;;-4.26;94.35
18858;BME280;9558;50.178;8.370;2023-02-10T01:18:11;100078.69;;;-4.24;94.34
18858;BME280;9558;50.178;8.370;2023-02-10T01:20:39;100080.41;;;-4.26;94.13
18858;BME280;9558;50.178;8.370;2023-02-10T01:23:06;100077.88;;;-4.26;94.72
18858;BME280;9558;50.178;8.370;2023-02-10T01:25:33;100081.25;;;-4.27;94.25
18858;BME280;9558;50.178;8.370;2023-02-10T01:28:01;100080.47;;;-4.29;94.90
18858;BME280;9558;50.178;8.370;2023-02-10T01:30:28;100084.72;;;-4.31;95.15
18858;BME280;9558;50.178;8.370;2023-02-10T01:32:55;100087.25;;;-4.31;94.58
18858;BME280;9558;50.178;8.370;2023-02-10T01:35:22;100091.44;;;-4.30;94.53
18858;BME280;9558;50.178;8.370;2023-02-10T01:37:48;100100.69;;;-4.29;95.03
18858;BME280;9558;50.178;8.370;2023-02-10T01:40:15;100094.75;;;-4.27;94.71
18858;BME280;9558;50.178;8.370;2023-02-10T01:42:41;100098.91;;;-4.24;95.29
18858;BME280;9558;50.178;8.370;2023-02-10T01:45:16;100094.56;;;-4.19;94.97
18858;BME280;9558;50.178;8.370;2023-02-10T01:47:45;100103.69;;;-4.13;95.23
18858;BME280;9558;50.178;8.370;2023-02-10T01:50:13;100095.22;;;-4.11;95.43
18858;BME280;9558;50.178;8.370;2023-02-10T01:52:41;100092.53;;;-4.05;95.63
18858;BME280;9558;50.178;8.370;2023-02-10T01:55:09;100094.06;;;-3.97;95.97
18858;BME280;9558;50.178;8.370;2023-02-10T01:57:37;100093.94;;;-3.91;95.82
18858;BME280;9558;50.178;8.370;2023-02-10T02:00:07;100097.19;;;-3.86;95.55
18858;BME280;9558;50.178;8.370;2023-02-10T02:02:35;100110.50;;;-3.78;96.07
18858;BME280;9558;50.178;8.370;2023-02-10T02:05:05;100109.44;;;-3.69;95.95
18858;BME280;9558;50.178;8.370;2023-02-10T02:07:34;100096.63;;;-3.61;96.11
18858;BME280;9558;50.178;8.370;2023-02-10T02:10:05;100097.28;;;-3.55;96.49
18858;BME280;9558;50.178;8.370;2023-02-10T02:12:41;100097.88;;;-3.45;96.70
18858;BME280;9558;50.178;8.370;2023-02-10T02:15:14;100101.84;;;-3.35;96.18
18858;BME280;9558;50.178;8.370;2023-02-10T02:17:49;100108.31;;;-3.23;96.36
18858;BME280;9558;50.178;8.370;2023-02-10T02:20:45;100108.88;;;-3.13;96.38
18858;BME280;9558;50.178;8.370;2023-02-10T02:23:28;100106.13;;;-3.04;96.68
18858;BME280;9558;50.178;8.370;2023-02-10T02:26:18;100109.19;;;-2.92;96.24
18858;BME280;9558;50.178;8.370;2023-02-10T02:29:01;100107.28;;;-2.84;96.19
18858;BME280;9558;50.178;8.370;2023-02-10T02:31:43;100107.84;;;-2.73;96.40
18858;BME280;9558;50.178;8.370;2023-02-10T02:34:15;100116.94;;;-2.67;96.05
18858;BME280;9558;50.178;8.370;2023-02-10T02:36:48;100105.88;;;-2.65;96.42
18858;BME280;9558;50.178;8.370;2023-02-10T02:39:15;100109.91;;;-2.57;96.54
18858;BME280;9558;50.178;8.370;2023-02-10T02:41:42;100109.72;;;-2.50;96.76
18858;BME280;9558;50.178;8.370;2023-02-10T02:44:08;100116.25;;;-2.42;97.42
18858;BME280;9558;50.178;8.370;2023-02-10T02:46:46;100121.00;;;-2.32;96.54
18858;BME280;9558;50.178;8.370;2023-02-10T02:49:23;100119.22;;;-2.28;96.90
18858;BME280;9558;50.178;8.370;2023-02-10T02:51:57;100107.97;;;-2.19;96.24
18858;BME280;9558;50.178;8.370;2023-02-10T02:54:30;100107.78;;;-2.13;96.43
18858;BME280;9558;50.178;8.370;2023-02-10T02:57:07;100105.03;;;-2.05;96.41
18858;BME280;9558;50.178;8.370;2023-02-10T02:59:39;100114.16;;;-2.00;96.61
18858;BME280;9558;50.178;8.370;2023-02-10T03:02:10;100112.28;;;-1.95;96.66
18858;BME280;9558;50.178;8.370;2023-02-10T03:04:38;100108.69;;;-1.87;97.07
18858;BME280;9558;50.178;8.370;2023-02-10T03:07:05;100107.66;;;-1.82;97.02
18858;BME280;9558;50.178;8.370;2023-02-10T03:09:32;100108.41;;;-1.78;96.93
18858;BME280;9558;50.178;8.370;2023-02-10T03:11:59;100107.38;;;-1.72;96.60
18858;BME280;9558;50.178;8.370;2023-02-10T03:14:26;100118.16;;;-1.66;96.50
18858;BME280;9558;50.178;8.370;2023-02-10T03:16:52;100106.97;;;-1.60;97.02
18858;BME280;9558;50.178;8.370;2023-02-10T03:19:20;100109.38;;;-1.55;96.70
18858;BME280;9558;50.178;8.370;2023-02-10T03:21:47;100104.97;;;-1.50;96.72
18858;BME280;9558;50.178;8.370;2023-02-10T03:24:13;100105.66;;;-1.45;96.71
18858;BME280;9558;50.178;8.370;2023-02-10T03:26:42;100110.53;;;-1.39;96.62
18858;BME280;9558;50.178;8.370;2023-02-10T03:29:10;100113.75;;;-1.34;96.94
18858;BME280;9558;50.178;8.370;2023-02-10T03:31:37;100114.47;;;-1.30;97.25
18858;BME280;9558;50.178;8.370;2023-02-10T03:34:03;100115.97;;;-1.25;97.01
18858;BME280;9558;50.178;8.370;2023-02-10T03:36:31;100116.66;;;-1.19;97.09
18858;BME280;9558;50.178;8.370;2023-02-10T03:38:59;100117.38;;;-1.16;96.79
18858;BME280;9558;50.178;8.370;2023-02-10T03:41:25;100116.31;;;-1.10;96.78
18858;BME280;9558;50.178;8.370;2023-02-10T03:43:51;100115.34;;;-1.06;97.24
18858;BME280;9558;50.178;8.370;2023-02-10T03:46:18;100119.44;;;-1.02;97.25
18858;BME280;9558;50.178;8.370;2023-02-10T03:48:44;100118.50;;;-0.99;98.84
18858;BME280;9558;50.178;8.370;2023-02-10T03:51:11;100121.88;;;-0.99;98.82
18858;BME280;9558;50.178;8.370;2023-02-10T03:53:39;100125.97;;;-0.95;97.81
18858;BME280;9558;50.178;8.370;2023-02-10T03:56:06;100125.03;;;-0.92;97.54
18858;BME280;9558;50.178;8.370;2023-02-10T03:58:33;100119.03;;;-0.90;97.68
18858;BME280;9558;50.178;8.370;2023-02-10T04:01:00;100132.50;;;-0.88;97.51
18858;BME280;9558;50.178;8.370;2023-02-10T04:03:26;100128.03;;;-0.81;98.04
18858;BME280;9558;50.178;8.370;2023-02-10T04:05:52;100139.03;;;-0.80;98.57
18858;BME280;9558;50.178;8.370;2023-02-10T04:08:19;100139.88;;;-0.80;100.00
18858;BME280;9558;50.178;8.370;2023-02-10T04:10:47;100132.91;;;-0.75;99.73
18858;BME280;9558;50.178;8.370;2023-02-10T04:13:13;100135.25;;;-0.70;99.69
18858;BME280;9558;50.178;8.370;2023-02-10T04:15:40;100141.91;;;-0.66;98.91
18858;BME280;9558;50.178;8.370;2023-02-10T04:18:06;100138.47;;;-0.65;98.58
18858;BME280;9558;50.178;8.370;2023-02-10T04:20:33;100141.75;;;-0.61;98.26
18858;BME280;9558;50.178;8.370;2023-02-10T04:22:59;100144.25;;;-0.60;98.46
18858;BME280;9558;50.178;8.370;2023-02-10T04:25:25;100147.56;;;-0.58;98.59
18858;BME280;9558;50.178;8.370;2023-02-10T04:27:53;100158.53;;;-0.56;99.61
18858;BME280;9558;50.178;8.370;2023-02-10T04:30:20;100160.81;;;-0.49;98.53
18858;BME280;9558;50.178;8.370;2023-02-10T04:32:46;100158.34;;;-0.51;100.00
18858;BME280;9558;50.178;8.370;2023-02-10T04:35:13;100156.44;;;-0.46;99.92
18858;BME280;9558;50.178;8.370;2023-02-10T04:37:39;100152.84;;;-0.40;99.60
18858;BME280;9558;50.178;8.370;2023-02-10T04:40:06;100154.50;;;-0.39;100.00
18858;BME280;9558;50.178;8.370;2023-02-10T04:42:33;100159.47;;;-0.36;99.63
18858;BME280;9558;50.178;8.370;2023-02-10T04:45:00;100160.16;;;-0.31;99.70
18858;BME280;9558;50.178;8.370;2023-02-10T04:47:27;100162.69;;;-0.31;100.00
18858;BME280;9558;50.178;8.370;2023-02-10T04:49:54;100155.72;;;-0.26;100.00
18858;BME280;9558;50.178;8.370;2023-02-10T04:52:21;100165.00;;;-0.25;100.00
18858;BME280;9558;50.178;8.370;2023-02-10T04:54:47;100167.44;;;-0.22;100.00
18858;BME280;9558;50.178;8.370;2023-02-10T04:57:14;100175.69;;;-0.15;100.00
18858;BME280;9558;50.178;8.370;2023-02-10T04:59:41;100172.25;;;-0.14;100.00
18858;BME280;9558;50.178;8.370;2023-02-10T05:02:08;100170.41;;;-0.10;100.00
18858;BME280;9558;50.178;8.370;2023-02-10T05:04:35;100171.97;;;-0.06;100.00
18858;BME280;9558;50.178;8.370;2023-02-10T05:07:01;100175.28;;;-0.04;100.00
18858;BME280;9558;50.178;8.370;2023-02-10T05:09:28;100170.09;;;-0.01;100.00
18858;BME280;9558;50.178;8.370;2023-02-10T05:11:55;100180.16;;;0.02;100.00
18858;BME280;9558;50.178;8.370;2023-02-10T05:14:21;100180.84;;;0.06;100.00
18858;BME280;9558;50.178;8.370;2023-02-10T05:16:47;100181.44;;;0.12;100.00
18858;BME280;9558;50.178;8.370;2023-02-10T05:19:15;100177.91;;;0.16;100.00
18858;BME280;9558;50.178;8.370;2023-02-10T05:21:42;100170.06;;;0.21;100.00
18858;BME280;9558;50.178;8.370;2023-02-10T05:24:08;100175.78;;;0.28;100.00
18858;BME280;9558;50.178;8.370;2023-02-10T05:26:35;100170.56;;;0.31;100.00
18858;BME280;9558;50.178;8.370;2023-02-10T05:29:01;100168.47;;;0.41;100.00
18858;BME280;9558;50.178;8.370;2023-02-10T05:31:28;100165.94;;;0.41;100.00
18858;BME280;9558;50.178;8.370;2023-02-10T05:33:54;100159.75;;;0.46;100.00
18858;BME280;9558;50.178;8.370;2023-02-10T05:36:22;100158.09;;;0.45;100.00
18858;BME280;9558;50.178;8.370;2023-02-10T05:38:49;100164.72;;;0.49;100.00
18858;BME280;9558;50.178;8.370;2023-02-10T05:41:29;100165.38;;;0.55;100.00
18858;BME280;9558;50.178;8.370;2023-02-10T05:43:56;100167.81;;;0.58;100.00
18858;BME280;9558;50.178;8.370;2023-02-10T05:46:23;100163.47;;;0.60;100.00
18858;BME280;9558;50.178;8.370;2023-02-10T05:48:49;100165.06;;;0.62;100.00
18858;BME280;9558;50.178;8.370;2023-02-10T05:51:15;100162.31;;;0.67;100.00
18858;BME280;9558;50.178;8.370;2023-02-10T05:53:43;100166.53;;;0.68;100.00
18858;BME280;9558;50.178;8.370;2023-02-10T05:56:10;100166.78;;;0.62;100.00
18858;BME280;9558;50.178;8.370;2023-02-10T05:58:36;100171.69;;;0.66;100.00
18858;BME280;9558;50.178;8.370;2023-02-10T06:01:06;100168.34;;;0.66;100.00
18858;BME280;9558;50.178;8.370;2023-02-10T06:03:32;100166.78;;;0.62;100.00
18858;BME280;9558;50.178;8.370;2023-02-10T06:05:59;100164.25;;;0.62;100.00
18858;BME280;9558;50.178;8.370;2023-02-10T06:08:26;100162.59;;;0.61;100.00
18858;BME280;9558;50.178;8.370;2023-02-10T06:10:53;100161.81;;;0.59;100.00
18858;BME280;9558;50.178;8.370;2023-02-10T06:13:20;100166.94;;;0.59;100.00
18858;BME280;9558;50.178;8.370;2023-02-10T06:15:47;100170.47;;;0.55;100.00
18858;BME280;9558;50.178;8.370;2023-02-10T06:18:13;100167.81;;;0.58;100.00
18858;BME280;9558;50.178;8.370;2023-02-10T06:20:40;100166.97;;;0.57;100.00
18858;BME280;9558;50.178;8.370;2023-02-10T06:23:06;100174.84;;;0.51;100.00
18858;BME280;9558;50.178;8.370;2023-02-10T06:25:33;100175.03;;;0.46;100.00
18858;BME280;9558;50.178;8.370;2023-02-10T06:28:02;100168.53;;;0.39;100.00
18858;BME280;9558;50.178;8.370;2023-02-10T06:30:29;100174.50;;;0.38;100.00
18858;BME280;9558;50.178;8.370;2023-02-10T06:32:56;100177.19;;;0.35;100.00
18858;BME280;9558;50.178;8.370;2023-02-10T06:35:22;100178.13;;;0.32;100.00
18858;BME280;9558;50.178;8.370;2023-02-10T06:37:49;100189.38;;;0.27;100.00
18858;BME280;9558;50.178;8.370;2023-02-10T06:40:15;100196.28;;;0.25;100.00
18858;BME280;9558;50.178;8.370;2023-02-10T06:42:42;100200.41;;;0.27;100.00
18858;BME280;9558;50.178;8.370;2023-02-10T06:45:10;100201.47;;;0.22;100.00
18858;BME280;9558;50.178;8.370;2023-02-10T06:47:36;100206.72;;;0.17;100.00
18858;BME280;9558;50.178;8.370;2023-02-10T06:50:04;100204.19;;;0.17;100.00
18858;BME280;9558;50.178;8.370;2023-02-10T06:52:31;100214.53;;;0.12;100.00
18858;BME280;9558;50.178;8.370;2023-02-10T06:55:00;100203.59;;;0.10;100.00
18858;BME280;9558;50.178;8.370;2023-02-10T06:57:26;100212.00;;;0.12;100.00
18858;BME280;9558;50.178;8.370;2023-02-10T06:59:53;100211.31;;;0.09;100.00
18858;BME280;9558;50.178;8.370;2023-02-10T07:02:21;100217.16;;;0.11;100.00
18858;BME280;9558;50.178;8.370;2023-02-10T07:04:47;100226.41;;;0.13;100.00
18858;BME280;9558;50.178;8.370;2023-02-10T07:07:14;100221.25;;;0.15;100.00
18858;BME280;9558;50.178;8.370;2023-02-10T07:09:40;100228.00;;;0.16;100.00
18858;BME280;9558;50.178;8.370;2023-02-10T07:12:07;100227.09;;;0.17;100.00
18858;BME280;9558;50.178;8.370;2023-02-10T07:14:33;100232.13;;;0.19;100.00
18858;BME280;9558;50.178;8.370;2023-02-10T07:17:00;100244.84;;;0.20;100.00
18858;BME280;9558;50.178;8.370;2023-02-10T07:19:28;100238.78;;;0.23;100.00
18858;BME280;9558;50.178;8.370;2023-02-10T07:21:56;100237.00;;;0.25;100.00
18858;BME280;9558;50.178;8.370;2023-02-10T07:24:22;100242.81;;;0.28;100.00
18858;BME280;9558;50.178;8.370;2023-02-10T07:26:49;100240.09;;;0.33;100.00
18858;BME280;9558;50.178;8.370;2023-02-10T07:29:15;100245.06;;;0.36;100.00
18858;BME280;9558;50.178;8.370;2023-02-10T07:31:42;100243.16;;;0.41;100.00
18858;BME280;9558;50.178;8.370;2023-02-10T07:34:08;100243.09;;;0.43;100.00
18858;BME280;9558;50.178;8.370;2023-02-10T07:36:36;100245.56;;;0.46;100.00
18858;BME280;9558;50.178;8.370;2023-02-10T07:39:02;100248.75;;;0.51;100.00
18858;BME280;9558;50.178;8.370;2023-02-10T07:41:29;100251.09;;;0.56;100.00
18858;BME280;9558;50.178;8.370;2023-02-10T07:43:55;100257.75;;;0.60;100.00
18858;BME280;9558;50.178;8.370;2023-02-10T07:46:22;100262.72;;;0.63;100.00
18858;BME280;9558;50.178;8.370;2023-02-10T07:48:49;100272.03;;;0.64;100.00
18858;BME280;9558;50.178;8.370;2023-02-10T07:51:15;100278.59;;;0.69;100.00
18858;BME280;9558;50.178;8.370;2023-02-10T07:53:43;100275.00;;;0.75;100.00
18858;BME280;9558;50.178;8.370;2023-02-10T07:56:09;100279.06;;;0.79;100.00
18858;BME280;9558;50.178;8.370;2023-02-10T07:58:36;100272.91;;;0.85;100.00
18858;BME280;9558;50.178;8.370;2023-02-10T08:01:06;100269.28;;;0.91;100.00
18858;BME280;9558;50.178;8.370;2023-02-10T08:03:32;100267.56;;;0.91;100.00
18858;BME280;9558;50.178;8.370;2023-02-10T08:05:59;100270.03;;;0.93;100.00
18858;BME280;9558;50.178;8.370;2023-02-10T08:08:25;100266.59;;;0.94;100.00
18858;BME280;9558;50.178;8.370;2023-02-10T08:10:53;100262.28;;;0.96;100.00
18858;BME280;9558;50.178;8.370;2023-02-10T08:13:20;100263.06;;;0.98;100.00
18858;BME280;9558;50.178;8.370;2023-02-10T08:15:47;100268.81;;;1.03;100.00
18858;BME280;9558;50.178;8.370;2023-02-10T08:18:13;100266.19;;;1.05;100.00
18858;BME280;9558;50.178;8.370;2023-02-10T08:20:40;100269.44;;;1.08;100.00
18858;BME280;9558;50.178;8.370;2023-02-10T08:23:07;100272.75;;;1.10;100.00
18858;BME280;9558;50.178;8.370;2023-02-10T08:25:39;100270.97;;;1.12;100.00
18858;BME280;9558;50.178;8.370;2023-02-10T08:28:06;100268.34;;;1.14;100.00
18858;BME280;9558;50.178;8.370;2023-02-10T08:30:33;100274.03;;;1.20;100.00
18858;BME280;9558;50.178;8.370;2023-02-10T08:32:59;100274.03;;;1.20;100.00
18858;BME280;9558;50.178;8.370;2023-02-10T08:35:26;100268.81;;;1.24;100.00
18858;BME280;9558;50.178;8.370;2023-02-10T08:37:53;100278.81;;;1.28;100.00
18858;BME280;9558;50.178;8.370;2023-02-10T08:40:20;100274.56;;;1.29;100.00
18858;BME280;9558;50.178;8.370;2023-02-10T08:42:46;100275.19;;;1.34;99.94
18858;BME280;9558;50.178;8.370;2023-02-10T08:45:14;100279.19;;;1.40;100.00
18858;BME280;9558;50.178;8.370;2023-02-10T08:47:40;100285.75;;;1.45;100.00
18858;BME280;9558;50.178;8.370;2023-02-10T08:50:07;100284.63;;;1.52;100.00
18858;BME280;9558;50.178;8.370;2023-02-10T08:52:33;100274.84;;;1.62;99.68
18858;BME280;9558;50.178;8.370;2023-02-10T08:55:00;100275.56;;;1.66;99.40
18858;BME280;9558;50.178;8.370;2023-02-10T08:57:27;100279.50;;;1.73;99.32
18858;BME280;9558;50.178;8.370;2023-02-10T08:59:53;100274.13;;;1.79;99.25
18858;BME280;9558;50.178;8.370;2023-02-10T09:02:21;100284.19;;;1.82;99.02
18858;BME280;9558;50.178;8.370;2023-02-10T09:04:48;100286.41;;;1.90;99.02
18858;BME280;9558;50.178;8.370;2023-02-10T09:07:14;100287.09;;;1.94;98.73
18858;BME280;9558;50.178;8.370;2023-02-10T09:09:42;100287.84;;;1.96;98.48
18858;BME280;9558;50.178;8.370;2023-02-10T09:12:10;100289.38;;;2.00;98.26
18858;BME280;9558;50.178;8.370;2023-02-10T09:14:37;100287.59;;;2.02;98.41
18858;BME280;9558;50.178;8.370;2023-02-10T09:17:04;100284.84;;;2.06;97.85
18858;BME280;9558;50.178;8.370;2023-02-10T09:19:35;100283.88;;;2.09;97.72
18858;BME280;9558;50.178;8.370;2023-02-10T09:22:01;100287.03;;;2.14;97.53
18858;BME280;9558;50.178;8.370;2023-02-10T09:24:28;100290.38;;;2.16;97.01
18858;BME280;9558;50.178;8.370;2023-02-10T09:26:55;100288.56;;;2.18;96.78
18858;BME280;9558;50.178;8.370;2023-02-10T09:29:21;100293.50;;;2.23;97.01
18858;BME280;9558;50.178;8.370;2023-02-10T09:31:48;100296.88;;;2.23;96.48
18858;BME280;9558;50.178;8.370;2023-02-10T09:34:14;100290.78;;;2.26;96.76
18858;BME280;9558;50.178;8.370;2023-02-10T09:36:42;100296.56;;;2.30;96.36
18858;BME280;9558;50.178;8.370;2023-02-10T09:39:09;100300.50;;;2.37;96.71
18858;BME280;9558;50.178;8.370;2023-02-10T09:41:43;100303.69;;;2.42;96.53
18858;BME280;9558;50.178;8.370;2023-02-10T09:44:15;100310.19;;;2.49;96.31
18858;BME280;9558;50.178;8.370;2023-02-10T09:46:53;100307.47;;;2.52;96.12
18858;BME280;9558;50.178;8.370;2023-02-10T09:52:27;100313.97;;;2.59;96.21
18858;BME280;9558;50.178;8.370;2023-02-10T09:54:55;100320.75;;;2.61;95.40
18858;BME280;9558;50.178;8.370;2023-02-10T09:57:29;100312.03;;;2.65;96.49
18858;BME280;9558;50.178;8.370;2023-02-10T09:59:59;100312.78;;;2.67;95.75
18858;BME280;9558;50.178;8.370;2023-02-10T10:02:30;100313.47;;;2.70;95.57
18858;BME280;9558;50.178;8.370;2023-02-10T10:04:58;100310.78;;;2.73;95.47
18858;BME280;9558;50.178;8.370;2023-02-10T10:07:30;100316.56;;;2.77;95.16
18858;BME280;9558;50.178;8.370;2023-02-10T10:10:02;100323.34;;;2.78;95.19
18858;BME280;9558;50.178;8.370;2023-02-10T10:12:30;100324.94;;;2.81;95.09
18858;BME280;9558;50.178;8.370;2023-02-10T10:14:56;100319.75;;;2.82;95.69
18858;BME280;9558;50.178;8.370;2023-02-10T10:17:39;100318.69;;;2.86;95.53
18858;BME280;9558;50.178;8.370;2023-02-10T10:23:33;100329.34;;;2.96;95.44
18858;BME280;9558;50.178;8.370;2023-02-10T10:26:19;100314.50;;;3.03;95.70
18858;BME280;9558;50.178;8.370;2023-02-10T10:29:01;100322.56;;;3.13;95.20
18858;BME280;9558;50.178;8.370;2023-02-10T10:31:33;100317.84;;;3.22;95.80
18858;BME280;9558;50.178;8.370;2023-02-10T10:34:08;100324.22;;;3.31;95.47
18858;BME280;9558;50.178;8.370;2023-02-10T10:36:41;100320.09;;;3.46;95.03
18858;BME280;9558;50.178;8.370;2023-02-10T10:39:14;100324.00;;;3.53;95.18
18858;BME280;9558;50.178;8.370;2023-02-10T10:41:43;100322.63;;;3.63;95.06
18858;BME280;9558;50.178;8.370;2023-02-10T10:44:12;100322.31;;;3.70;94.87
18858;BME280;9558;50.178;8.370;2023-02-10T10:46:45;100312.44;;;3.79;94.57
18858;BME280;9558;50.178;8.370;2023-02-10T10:49:13;100319.06;;;3.84;94.64
18858;BME280;9558;50.178;8.370;2023-02-10T10:51:40;100318.00;;;3.88;94.91
18858;BME280;9558;50.178;8.370;2023-02-10T10:54:14;100320.06;;;3.97;94.53
18858;BME280;9558;50.178;8.370;2023-02-10T10:56:43;100315.47;;;4.04;94.44
18858;BME280;9558;50.178;8.370;2023-02-10T10:59:15;100312.66;;;4.08;94.55
18858;BME280;9558;50.178;8.370;2023-02-10T11:01:44;100311.69;;;4.11;93.69
18858;BME280;9558;50.178;8.370;2023-02-10T11:04:13;100313.19;;;4.15;93.94
18858;BME280;9558;50.178;8.370;2023-02-10T11:06:43;100305.16;;;4.21;93.68
18858;BME280;9558;50.178;8.370;2023-02-10T11:09:21;100308.41;;;4.25;92.97
18858;BME280;9558;50.178;8.370;2023-02-10T11:11:49;100308.22;;;4.28;93.49
18858;BME280;9558;50.178;8.370;2023-02-10T11:14:18;100297.72;;;4.32;93.40
18858;BME280;9558;50.178;8.370;2023-02-10T11:16:48;100297.56;;;4.36;92.16
18858;BME280;9558;50.178;8.370;2023-02-10T11:19:18;100291.25;;;4.41;91.48
18858;BME280;9558;50.178;8.370;2023-02-10T11:21:45;100293.66;;;4.44;92.14
18858;BME280;9558;50.178;8.370;2023-02-10T11:24:22;100300.38;;;4.47;91.12
18858;BME280;9558;50.178;8.370;2023-02-10T11:26:58;100305.25;;;4.52;91.87
18858;BME280;9558;50.178;8.370;2023-02-10T11:29:25;100300.78;;;4.55;91.52
18858;BME280;9558;50.178;8.370;2023-02-10T11:31:55;100300.69;;;4.57;90.67
18858;BME280;9558;50.178;8.370;2023-02-10T11:34:28;100299.44;;;4.64;91.10
18858;BME280;9558;50.178;8.370;2023-02-10T11:36:57;100300.13;;;4.67;89.98
18858;BME280;9558;50.178;8.370;2023-02-10T11:39:28;100284.56;;;4.71;90.10
18858;BME280;9558;50.178;8.370;2023-02-10T11:41:56;100285.38;;;4.71;89.54
18858;BME280;9558;50.178;8.370;2023-02-10T11:44:25;100287.75;;;4.74;90.02
18858;BME280;9558;50.178;8.370;2023-02-10T11:46:59;100282.53;;;4.76;89.08
18858;BME280;9558;50.178;8.370;2023-02-10T11:49:27;100278.09;;;4.79;88.99
18858;BME280;9558;50.178;8.370;2023-02-10T11:51:58;100282.22;;;4.82;88.56
18858;BME280;9558;50.178;8.370;2023-02-10T11:54:27;100281.38;;;4.81;88.01
18858;BME280;9558;50.178;8.370;2023-02-10T11:57:03;100280.38;;;4.84;87.70
18858;BME280;9558;50.178;8.370;2023-02-10T12:00:01;100279.66;;;4.82;85.80
18858;BME280;9558;50.178;8.370;2023-02-10T12:03:03;100282.53;;;4.92;87.34
18858;BME280;9558;50.178;8.370;2023-02-10T12:05:38;100287.94;;;5.01;87.41
18858;BME280;9558;50.178;8.370;2023-02-10T12:08:15;100272.56;;;5.01;86.50
18858;BME280;9558;50.178;8.370;2023-02-10T12:10:52;100274.03;;;5.06;86.30
18858;BME280;9558;50.178;8.370;2023-02-10T12:13:28;100272.69;;;5.14;86.98
18858;BME280;9558;50.178;8.370;2023-02-10T12:16:07;100276.09;;;5.15;86.60
18858;BME280;9558;50.178;8.370;2023-02-10T12:18:47;100272.44;;;5.19;86.67
18858;BME280;9558;50.178;8.370;2023-02-10T12:21:33;100270.78;;;5.18;85.53
18858;BME280;9558;50.178;8.370;2023-02-10T12:24:10;100268.47;;;5.13;86.24
18858;BME280;9558;50.178;8.370;2023-02-10T12:26:47;100266.09;;;5.10;86.67
18858;BME280;9558;50.178;8.370;2023-02-10T12:29:26;100266.00;;;5.12;86.28
18858;BME280;9558;50.178;8.370;2023-02-10T12:32:01;100263.63;;;5.09;85.17
18858;BME280;9558;50.178;8.370;2023-02-10T12:34:50;100262.13;;;5.05;85.71
18858;BME280;9558;50.178;8.370;2023-02-10T12:37:30;100258.81;;;5.02;85.32
18858;BME280;9558;50.178;8.370;2023-02-10T12:40:19;100252.19;;;4.98;85.37
18858;BME280;9558;50.178;8.370;2023-02-10T12:42:57;100254.88;;;4.97;84.98
18858;BME280;9558;50.178;8.370;2023-02-10T12:45:31;100248.34;;;4.91;85.02
18858;BME280;9558;50.178;8.370;2023-02-10T12:48:05;100243.22;;;4.91;85.11
18858;BME280;9558;50.178;8.370;2023-02-10T12:50:47;100235.69;;;4.88;84.95
18858;BME280;9558;50.178;8.370;2023-02-10T12:53:24;100242.66;;;4.86;84.14
18858;BME280;9558;50.178;8.370;2023-02-10T12:55:55;100240.09;;;4.86;84.42
18858;BME280;9558;50.178;8.370;2023-02-10T12:58:30;100236.94;;;4.81;84.44
18858;BME280;9558;50.178;8.370;2023-02-10T13:01:06;100246.63;;;4.76;83.21
18858;BME280;9558;50.178;8.370;2023-02-10T13:03:38;100233.91;;;4.74;84.00
18858;BME280;9558;50.178;8.370;2023-02-10T13:06:18;100231.50;;;4.71;84.24
18858;BME280;9558;50.178;8.370;2023-02-10T13:08:51;100222.19;;;4.70;85.11
18858;BME280;9558;50.178;8.370;2023-02-10T13:11:25;100227.22;;;4.72;84.51
18858;BME280;9558;50.178;8.370;2023-02-10T13:13:57;100233.06;;;4.74;84.44
18858;BME280;9558;50.178;8.370;2023-02-10T13:16:28;100230.69;;;4.71;83.81
18858;BME280;9558;50.178;8.370;2023-02-10T13:19:03;100227.31;;;4.70;83.18
18858;BME280;9558;50.178;8.370;2023-02-10T13:21:39;100225.47;;;4.72;84.17